createdAt,value
2023-05-22T00:01:43.540Z,100694.97
2023-05-22T00:04:13.172Z,100699.91
2023-05-22T00:06:43.567Z,100706.03
2023-05-22T00:09:10.173Z,100697.88
2023-05-22T00:11:36.841Z,100698.13
2023-05-22T00:14:03.472Z,100697.22
2023-05-22T00:16:30.604Z,100692.19
2023-05-22T00:18:57.686Z,100693.91
2023-05-22T00:21:24.657Z,100697.41
2023-05-22T00:23:51.246Z,100689.03
2023-05-22T00:26:17.805Z,100685.50
2023-05-22T00:28:44.959Z,100685.44
2023-05-22T00:31:11.540Z,100691.84
2023-05-22T00:33:38.297Z,100686.84
2023-05-22T00:36:05.425Z,100681.97
2023-05-22T00:38:34.304Z,100681.16
2023-05-22T00:41:02.145Z,100673.97
2023-05-22T00:43:28.990Z,100669.06
2023-05-22T00:45:56.700Z,100671.78
2023-05-22T00:48:24.559Z,100675.25
2023-05-22T00:50:54.967Z,100666.19
2023-05-22T00:53:24.211Z,100668.06
2023-05-22T00:55:51.720Z,100658.16
2023-05-22T00:58:19.188Z,100661.25
2023-05-22T01:00:48.923Z,100666.47
2023-05-22T01:03:17.549Z,100650.56
2023-05-22T01:05:45.455Z,100649.50
2023-05-22T01:08:12.053Z,100645.28
2023-05-22T01:10:40.134Z,100643.00
2023-05-22T01:13:32.052Z,100650.69
2023-05-22T01:16:10.950Z,100643.84
2023-05-22T01:18:47.106Z,100647.94
2023-05-22T01:21:24.199Z,100647.84
2023-05-22T01:24:07.461Z,100651.94
2023-05-22T01:27:08.601Z,100648.88
2023-05-22T01:29:46.321Z,100655.41
2023-05-22T01:32:16.189Z,100647.75
2023-05-22T01:34:47.199Z,100654.66
2023-05-22T01:37:15.271Z,100649.50
2023-05-22T01:39:44.028Z,100651.09
2023-05-22T01:42:10.849Z,100652.53
2023-05-22T01:44:37.595Z,100646.03
2023-05-22T01:47:05.765Z,100646.69
2023-05-22T01:49:33.927Z,100651.88
2023-05-22T01:52:12.089Z,100650.06
2023-05-22T01:55:06.251Z,100647.97
2023-05-22T01:58:01.875Z,100654.53
2023-05-22T02:00:30.479Z,100637.94
2023-05-22T02:03:04.758Z,100640.94
2023-05-22T02:05:54.077Z,100640.53
2023-05-22T02:08:22.902Z,100644.72
2023-05-22T02:10:52.113Z,100635.50
2023-05-22T02:13:21.284Z,100636.47
2023-05-22T02:15:48.949Z,100635.88
2023-05-22T02:18:16.289Z,100636.09
2023-05-22T02:20:43.372Z,100634.78
2023-05-22T02:23:10.052Z,100631.00
2023-05-22T02:25:37.080Z,100625.53
2023-05-22T02:28:03.950Z,100618.25
2023-05-22T02:30:30.860Z,100621.09
2023-05-22T02:33:00.633Z,100615.78
2023-05-22T02:35:27.324Z,100618.75
2023-05-22T02:37:54.098Z,100615.16
2023-05-22T02:40:21.073Z,100619.00
2023-05-22T02:42:47.691Z,100615.66
2023-05-22T02:45:14.533Z,100609.28
2023-05-22T02:47:41.823Z,100607.78
2023-05-22T02:50:08.743Z,100610.09
2023-05-22T02:52:37.287Z,100616.34
2023-05-22T02:55:04.499Z,100624.50
2023-05-22T02:57:31.822Z,100613.66
2023-05-22T02:59:59.438Z,100605.56
2023-05-22T03:02:28.297Z,100608.88
2023-05-22T03:04:55.372Z,100606.16
2023-05-22T03:07:21.978Z,100601.56
2023-05-22T03:09:48.664Z,100602.72
2023-05-22T03:12:15.277Z,100593.09
2023-05-22T03:14:41.929Z,100589.84
2023-05-22T03:17:08.694Z,100589.66
2023-05-22T03:19:35.606Z,100590.81
2023-05-22T03:22:02.573Z,100585.59
2023-05-22T03:24:29.809Z,100591.66
2023-05-22T03:26:56.768Z,100589.88
2023-05-22T03:29:32.971Z,100588.44
2023-05-22T03:32:00.165Z,100598.19
2023-05-22T03:34:27.660Z,100600.69
2023-05-22T03:36:54.803Z,100592.97
2023-05-22T03:39:21.625Z,100594.28
2023-05-22T03:41:55.029Z,100588.00
2023-05-22T03:44:23.725Z,100589.66
2023-05-22T03:46:50.670Z,100588.50
2023-05-22T03:49:18.006Z,100586.81
2023-05-22T03:51:44.749Z,100587.72
2023-05-22T03:54:11.625Z,100598.22
2023-05-22T03:56:38.781Z,100590.69
2023-05-22T03:59:05.480Z,100588.19
2023-05-22T04:01:32.077Z,100592.56
2023-05-22T04:03:58.669Z,100587.09
2023-05-22T04:06:25.679Z,100589.72
2023-05-22T04:08:52.425Z,100590.38
2023-05-22T04:11:19.723Z,100593.56
2023-05-22T04:13:49.601Z,100601.78
2023-05-22T04:16:17.520Z,100600.97
2023-05-22T04:18:44.566Z,100594.72
2023-05-22T04:21:12.468Z,100598.69
2023-05-22T04:23:39.045Z,100601.38
2023-05-22T04:26:08.618Z,100593.28
2023-05-22T04:28:35.463Z,100598.00
2023-05-22T04:31:02.379Z,100594.78
2023-05-22T04:33:30.212Z,100596.69
2023-05-22T04:35:57.338Z,100600.31
2023-05-22T04:38:26.461Z,100599.88
2023-05-22T04:40:53.083Z,100594.53
2023-05-22T04:43:19.730Z,100592.94
2023-05-22T04:45:46.362Z,100598.06
2023-05-22T04:48:13.646Z,100605.56
2023-05-22T04:50:40.515Z,100591.28
2023-05-22T04:53:07.448Z,100591.06
2023-05-22T04:55:52.952Z,100587.28
2023-05-22T04:58:38.281Z,100599.75
2023-05-22T05:01:20.955Z,100590.97
2023-05-22T05:03:47.880Z,100593.81
2023-05-22T05:06:14.799Z,100595.88
2023-05-22T05:08:44.092Z,100586.31
2023-05-22T05:11:11.021Z,100596.28
2023-05-22T05:13:37.857Z,100585.53
2023-05-22T05:16:04.589Z,100593.41
2023-05-22T05:18:31.346Z,100591.19
2023-05-22T05:20:58.051Z,100593.53
2023-05-22T05:23:24.636Z,100589.53
2023-05-22T05:25:51.950Z,100593.25
2023-05-22T05:28:19.691Z,100584.69
2023-05-22T05:30:46.427Z,100583.84
2023-05-22T05:33:32.226Z,100591.03
2023-05-22T05:36:04.743Z,100580.06
2023-05-22T05:38:32.242Z,100585.84
2023-05-22T05:40:59.483Z,100579.03
2023-05-22T05:43:27.538Z,100574.44
2023-05-22T05:45:58.400Z,100578.13
2023-05-22T05:48:25.384Z,100584.41
2023-05-22T05:50:52.382Z,100582.34
2023-05-22T05:53:19.431Z,100578.72
2023-05-22T05:55:52.110Z,100588.69
2023-05-22T05:58:19.704Z,100581.06
2023-05-22T06:00:58.099Z,100580.50
2023-05-22T06:03:25.701Z,100590.81
2023-05-22T06:06:08.034Z,100581.16
2023-05-22T06:08:53.548Z,100591.47
2023-05-22T06:11:26.940Z,100587.16
2023-05-22T06:13:54.555Z,100590.50
2023-05-22T06:16:21.180Z,100581.06
2023-05-22T06:18:48.352Z,100590.16
2023-05-22T06:21:15.987Z,100592.59
2023-05-22T06:23:46.125Z,100601.31
2023-05-22T06:26:13.679Z,100602.91
2023-05-22T06:28:41.424Z,100604.31
2023-05-22T06:31:09.745Z,100605.25
2023-05-22T06:33:38.336Z,100599.66
2023-05-22T06:36:05.178Z,100600.28
2023-05-22T06:38:32.510Z,100591.41
2023-05-22T06:40:59.608Z,100583.44
2023-05-22T06:43:26.884Z,100603.50
2023-05-22T06:46:11.400Z,100599.91
2023-05-22T06:48:41.960Z,100599.63
2023-05-22T06:51:14.981Z,100606.03
2023-05-22T06:53:41.945Z,100604.09
2023-05-22T06:56:14.074Z,100607.72
2023-05-22T06:58:49.480Z,100610.13
2023-05-22T07:01:16.272Z,100605.50
2023-05-22T07:03:52.391Z,100606.91
2023-05-22T07:06:39.380Z,100611.66
2023-05-22T07:09:07.429Z,100614.84
2023-05-22T07:11:36.199Z,100606.59
2023-05-22T07:14:02.932Z,100614.78
2023-05-22T07:16:31.535Z,100614.63
2023-05-22T07:18:58.752Z,100622.34
2023-05-22T07:21:26.044Z,100625.94
2023-05-22T07:23:53.482Z,100616.25
2023-05-22T07:26:22.569Z,100609.03
2023-05-22T07:28:58.493Z,100606.19
2023-05-22T07:31:25.605Z,100601.66
2023-05-22T07:33:54.009Z,100596.06
2023-05-22T07:36:20.999Z,100603.47
2023-05-22T07:38:47.708Z,100598.25
2023-05-22T07:41:14.541Z,100599.03
2023-05-22T07:43:41.132Z,100594.38
2023-05-22T07:46:10.800Z,100596.84
2023-05-22T07:48:46.317Z,100599.09
2023-05-22T07:51:13.663Z,100587.06
2023-05-22T07:53:41.663Z,100583.16
2023-05-22T07:56:08.304Z,100593.69
2023-05-22T07:58:37.325Z,100607.19
2023-05-22T08:01:05.804Z,100600.88
2023-05-22T08:03:34.757Z,100591.97
2023-05-22T08:06:03.408Z,100594.88
2023-05-22T08:08:31.841Z,100594.03
2023-05-22T08:13:29.131Z,100592.91
2023-05-22T08:16:00.645Z,100588.66
2023-05-22T08:18:29.112Z,100578.88
2023-05-22T08:20:56.145Z,100583.88
2023-05-22T08:23:22.914Z,100592.00
2023-05-22T08:25:50.183Z,100588.53
2023-05-22T08:28:17.609Z,100590.38
2023-05-22T08:30:44.624Z,100583.41
2023-05-22T08:33:12.007Z,100597.31
2023-05-22T08:35:39.302Z,100591.53
2023-05-22T08:38:06.173Z,100596.13
2023-05-22T08:40:37.453Z,100601.31
2023-05-22T08:43:05.475Z,100592.03
2023-05-22T08:45:35.441Z,100585.88
2023-05-22T08:48:07.530Z,100574.31
2023-05-22T08:50:41.974Z,100585.88
2023-05-22T08:53:12.746Z,100576.72
2023-05-22T08:55:39.423Z,100568.03
2023-05-22T08:58:06.668Z,100568.06
2023-05-22T09:00:33.962Z,100565.38
2023-05-22T09:03:00.755Z,100557.84
2023-05-22T09:05:27.501Z,100564.59
2023-05-22T09:08:02.627Z,100559.88
2023-05-22T09:10:35.963Z,100556.16
2023-05-22T09:13:11.770Z,100554.50
2023-05-22T09:15:38.418Z,100548.13
2023-05-22T09:18:06.098Z,100547.75
2023-05-22T09:20:38.026Z,100559.34
2023-05-22T09:23:17.571Z,100546.97
2023-05-22T09:25:44.792Z,100546.00
2023-05-22T09:28:12.806Z,100546.22
2023-05-22T09:30:40.730Z,100545.16
2023-05-22T09:33:08.815Z,100547.59
2023-05-22T09:35:39.406Z,100540.75
2023-05-22T09:38:06.442Z,100532.19
2023-05-22T09:40:35.345Z,100533.50
2023-05-22T09:43:06.490Z,100537.44
2023-05-22T09:45:35.839Z,100534.41
2023-05-22T09:48:06.361Z,100534.94
2023-05-22T09:50:33.011Z,100537.81
2023-05-22T09:53:04.619Z,100543.19
2023-05-22T09:55:32.746Z,100534.56
2023-05-22T09:58:03.601Z,100527.06
2023-05-22T10:00:31.438Z,100540.28
2023-05-22T10:03:03.977Z,100531.84
2023-05-22T10:05:32.434Z,100526.66
2023-05-22T10:08:10.764Z,100518.56
2023-05-22T10:10:39.269Z,100524.78
2023-05-22T10:13:06.622Z,100513.69
2023-05-22T10:15:34.203Z,100527.44
2023-05-22T10:18:01.610Z,100518.28
2023-05-22T10:20:29.536Z,100514.44
2023-05-22T10:22:56.650Z,100524.47
2023-05-22T10:25:23.482Z,100507.59
2023-05-22T10:27:52.841Z,100516.59
2023-05-22T10:30:42.763Z,100508.75
2023-05-22T10:33:38.762Z,100523.03
2023-05-22T10:36:08.889Z,100501.84
2023-05-22T10:38:53.007Z,100494.94
2023-05-22T10:41:19.741Z,100496.84
2023-05-22T10:43:49.558Z,100483.81
2023-05-22T10:46:17.308Z,100480.47
2023-05-22T10:48:46.603Z,100496.84
2023-05-22T10:51:22.957Z,100487.16
2023-05-22T10:53:57.823Z,100482.22
2023-05-22T10:56:32.920Z,100473.16
2023-05-22T10:59:02.799Z,100475.03
2023-05-22T11:01:29.550Z,100474.94
2023-05-22T11:04:08.979Z,100473.00
2023-05-22T11:06:46.351Z,100463.63
2023-05-22T11:09:29.751Z,100466.34
2023-05-22T11:12:19.655Z,100464.59
2023-05-22T11:14:56.205Z,100467.44
2023-05-22T11:17:25.949Z,100461.16
2023-05-22T11:20:01.674Z,100461.44
2023-05-22T11:22:42.698Z,100452.22
2023-05-22T11:25:17.793Z,100455.25
2023-05-22T11:27:46.477Z,100448.91
2023-05-22T11:30:15.033Z,100445.09
2023-05-22T11:32:44.921Z,100456.22
2023-05-22T11:35:15.664Z,100443.97
2023-05-22T11:37:42.413Z,100460.84
2023-05-22T11:40:10.723Z,100442.31
2023-05-22T11:42:37.770Z,100440.28
2023-05-22T11:45:05.425Z,100436.13
2023-05-22T11:47:32.924Z,100434.06
2023-05-22T11:50:01.909Z,100435.19
2023-05-22T11:52:33.686Z,100436.88
2023-05-22T11:55:00.798Z,100435.06
2023-05-22T11:57:28.140Z,100434.13
2023-05-22T11:59:54.956Z,100420.66
2023-05-22T12:02:21.615Z,100430.59
2023-05-22T12:04:48.327Z,100430.81
2023-05-22T12:07:15.041Z,100442.06
2023-05-22T12:09:42.509Z,100432.66
2023-05-22T12:12:11.522Z,100430.09
2023-05-22T12:14:38.377Z,100419.31
2023-05-22T12:17:06.280Z,100419.59
2023-05-22T12:19:32.901Z,100413.34
2023-05-22T12:22:00.507Z,100417.44
2023-05-22T12:24:37.855Z,100409.50
2023-05-22T12:27:11.029Z,100415.53
2023-05-22T12:29:38.892Z,100410.66
2023-05-22T12:32:09.406Z,100408.19
2023-05-22T12:34:43.017Z,100401.97
2023-05-22T12:37:24.088Z,100407.56
2023-05-22T12:40:01.577Z,100406.94
2023-05-22T12:42:28.818Z,100406.34
2023-05-22T12:45:00.448Z,100396.88
2023-05-22T12:47:27.180Z,100394.63
2023-05-22T12:49:54.269Z,100397.75
2023-05-22T12:52:21.080Z,100384.28
2023-05-22T12:54:47.724Z,100383.16
2023-05-22T12:57:14.363Z,100387.75
2023-05-22T12:59:41.097Z,100380.88
2023-05-22T13:02:08.050Z,100387.22
2023-05-22T13:04:35.098Z,100384.06
2023-05-22T13:07:01.764Z,100375.75
2023-05-22T13:09:28.557Z,100384.78
2023-05-22T13:11:55.469Z,100382.41
2023-05-22T13:14:23.058Z,100386.75
2023-05-22T13:16:50.095Z,100370.56
2023-05-22T13:19:16.864Z,100370.09
2023-05-22T13:21:43.659Z,100364.63
2023-05-22T13:24:11.286Z,100370.81
2023-05-22T13:26:38.030Z,100368.72
2023-05-22T13:29:05.011Z,100364.41
2023-05-22T13:31:37.557Z,100363.66
2023-05-22T13:34:04.634Z,100364.00
2023-05-22T13:36:31.306Z,100356.03
2023-05-22T13:38:58.360Z,100361.69
2023-05-22T13:41:25.593Z,100367.09
2023-05-22T13:43:52.275Z,100351.78
2023-05-22T13:46:21.303Z,100354.19
2023-05-22T13:48:48.155Z,100353.47
2023-05-22T13:51:14.721Z,100344.75
2023-05-22T13:53:41.321Z,100335.28
2023-05-22T13:56:07.896Z,100339.13
2023-05-22T13:58:35.614Z,100338.34
2023-05-22T14:01:02.278Z,100343.25
2023-05-22T14:03:28.909Z,100350.41
2023-05-22T14:05:55.790Z,100341.66
2023-05-22T14:08:22.557Z,100341.41
2023-05-22T14:10:49.782Z,100339.00
2023-05-22T14:13:16.683Z,100334.75
2023-05-22T14:15:46.707Z,100331.59
2023-05-22T14:18:14.512Z,100326.91
2023-05-22T14:20:41.387Z,100326.63
2023-05-22T14:23:08.541Z,100327.84
2023-05-22T14:25:35.448Z,100331.94
2023-05-22T14:28:02.091Z,100336.53
2023-05-22T14:30:28.657Z,100343.06
2023-05-22T14:32:55.437Z,100335.16
2023-05-22T14:35:22.319Z,100341.84
2023-05-22T14:37:48.948Z,100334.19
2023-05-22T14:40:16.103Z,100336.69
2023-05-22T14:42:42.796Z,100329.50
2023-05-22T14:45:09.636Z,100332.38
2023-05-22T14:47:36.353Z,100337.00
2023-05-22T14:50:18.159Z,100330.28
2023-05-22T14:52:46.040Z,100327.34
2023-05-22T14:55:12.711Z,100326.44
2023-05-22T14:57:39.274Z,100317.06
2023-05-22T15:00:06.588Z,100322.59
2023-05-22T15:02:33.768Z,100323.91
2023-05-22T15:05:00.637Z,100318.59
2023-05-22T15:07:35.807Z,100320.69
2023-05-22T15:10:10.367Z,100313.34
2023-05-22T15:12:37.198Z,100302.19
2023-05-22T15:15:04.099Z,100292.19
2023-05-22T15:17:31.917Z,100280.84
2023-05-22T15:19:58.872Z,100280.75
2023-05-22T15:22:25.447Z,100294.16
2023-05-22T15:25:09.570Z,100298.03
2023-05-22T15:27:36.337Z,100297.56
2023-05-22T15:30:04.485Z,100297.88
2023-05-22T15:32:33.203Z,100302.78
2023-05-22T15:35:00.380Z,100309.50
2023-05-22T15:37:28.294Z,100320.56
2023-05-22T15:39:56.279Z,100331.59
2023-05-22T15:42:22.893Z,100321.56
2023-05-22T15:44:50.298Z,100323.19
2023-05-22T15:47:16.901Z,100325.03
2023-05-22T15:49:43.499Z,100319.97
2023-05-22T15:52:10.280Z,100315.72
2023-05-22T15:54:36.889Z,100312.38
2023-05-22T15:57:03.608Z,100300.97
2023-05-22T15:59:30.223Z,100283.47
2023-05-22T16:01:56.779Z,100282.84
2023-05-22T16:04:23.370Z,100249.22
2023-05-22T16:06:49.980Z,100212.75
2023-05-22T16:09:18.502Z,100224.44
2023-05-22T16:11:45.345Z,100244.66
2023-05-22T16:14:11.910Z,100274.78
2023-05-22T16:16:39.081Z,100258.91
2023-05-22T16:19:05.750Z,100236.47
2023-05-22T16:21:32.775Z,100229.94
2023-05-22T16:23:59.712Z,100224.28
2023-05-22T16:26:26.797Z,100230.06
2023-05-22T16:28:54.686Z,100237.66
2023-05-22T16:31:21.305Z,100249.50
2023-05-22T16:33:48.345Z,100241.28
2023-05-22T16:36:14.943Z,100247.00
2023-05-22T16:38:42.710Z,100251.31
2023-05-22T16:41:09.339Z,100233.03
2023-05-22T16:43:37.650Z,100226.94
2023-05-22T16:46:04.892Z,100227.41
2023-05-22T16:48:31.442Z,100232.34
2023-05-22T16:50:58.036Z,100228.31
2023-05-22T16:53:24.649Z,100229.53
2023-05-22T16:55:51.599Z,100220.88
2023-05-22T16:58:19.123Z,100221.59
2023-05-22T17:00:46.563Z,100233.38
2023-05-22T17:03:14.067Z,100306.94
2023-05-22T17:05:41.386Z,100317.06
2023-05-22T17:08:08.512Z,100320.59
2023-05-22T17:10:35.311Z,100315.00
2023-05-22T17:13:02.175Z,100314.19
2023-05-22T17:15:28.747Z,100306.88
2023-05-22T17:17:55.522Z,100318.72
2023-05-22T17:20:22.955Z,100314.91
2023-05-22T17:22:50.357Z,100336.44
2023-05-22T17:25:17.145Z,100365.50
2023-05-22T17:27:44.539Z,100390.41
2023-05-22T17:30:11.833Z,100392.75
2023-05-22T17:32:38.543Z,100393.13
2023-05-22T17:35:06.892Z,100394.88
2023-05-22T17:37:34.543Z,100384.94
2023-05-22T17:40:01.178Z,100403.66
2023-05-22T17:42:28.706Z,100423.47
2023-05-22T17:44:55.708Z,100437.91
2023-05-22T17:47:22.623Z,100432.78
2023-05-22T17:49:49.418Z,100427.25
2023-05-22T17:52:16.254Z,100433.03
2023-05-22T17:54:44.655Z,100440.00
2023-05-22T17:57:11.734Z,100427.47
2023-05-22T17:59:40.480Z,100428.81
2023-05-22T18:02:09.108Z,100428.72
2023-05-22T18:04:36.633Z,100429.97
2023-05-22T18:07:03.881Z,100420.81
2023-05-22T18:09:31.051Z,100433.09
2023-05-22T18:11:59.749Z,100427.59
2023-05-22T18:14:26.792Z,100431.97
2023-05-22T18:16:53.548Z,100438.59
2023-05-22T18:19:21.546Z,100446.13
2023-05-22T18:21:48.349Z,100435.19
2023-05-22T18:24:15.233Z,100445.19
2023-05-22T18:29:30.043Z,100431.06
2023-05-22T18:31:57.341Z,100424.47
2023-05-22T18:34:27.100Z,100418.91
2023-05-22T18:36:54.310Z,100419.81
2023-05-22T18:39:21.009Z,100415.06
2023-05-22T18:41:48.130Z,100410.53
2023-05-22T18:44:17.574Z,100399.50
2023-05-22T18:46:44.462Z,100401.34
2023-05-22T18:49:11.439Z,100416.03
2023-05-22T18:51:38.508Z,100417.53
2023-05-22T18:54:05.374Z,100425.78
2023-05-22T18:56:32.226Z,100447.25
2023-05-22T18:58:58.923Z,100454.97
2023-05-22T19:01:26.271Z,100461.03
2023-05-22T19:03:53.470Z,100468.78
2023-05-22T19:06:20.814Z,100492.94
2023-05-22T19:08:48.243Z,100494.34
2023-05-22T19:11:15.556Z,100501.47
2023-05-22T19:13:43.203Z,100504.47
2023-05-22T19:16:10.869Z,100525.94
2023-05-22T19:18:37.655Z,100521.22
2023-05-22T19:21:04.759Z,100513.84
2023-05-22T19:23:32.872Z,100515.69
2023-05-22T19:26:00.941Z,100508.19
2023-05-22T19:28:27.940Z,100510.19
2023-05-22T19:30:57.539Z,100514.00
2023-05-22T19:33:26.184Z,100514.22
2023-05-22T19:35:53.354Z,100505.25
2023-05-22T19:38:20.053Z,100513.94
2023-05-22T19:40:46.797Z,100510.00
2023-05-22T19:43:14.466Z,100512.78
2023-05-22T19:45:41.361Z,100508.84
2023-05-22T19:48:08.236Z,100507.09
2023-05-22T19:50:38.242Z,100510.38
2023-05-22T19:53:05.231Z,100513.06
2023-05-22T19:55:32.664Z,100518.22
2023-05-22T19:57:59.392Z,100515.72
2023-05-22T20:00:32.334Z,100512.56
2023-05-22T20:02:59.555Z,100519.09
2023-05-22T20:05:26.353Z,100516.81
2023-05-22T20:07:54.234Z,100517.19
2023-05-22T20:10:20.934Z,100506.63
2023-05-22T20:12:47.896Z,100515.38
2023-05-22T20:15:16.443Z,100525.81
2023-05-22T20:17:48.294Z,100519.88
2023-05-22T20:20:15.091Z,100517.75
2023-05-22T20:22:42.330Z,100518.03
2023-05-22T20:25:09.872Z,100511.09
2023-05-22T20:27:36.595Z,100515.19
2023-05-22T20:30:03.824Z,100513.09
2023-05-22T20:32:30.679Z,100506.50
2023-05-22T20:34:57.438Z,100491.13
2023-05-22T20:37:24.106Z,100488.28
2023-05-22T20:39:51.735Z,100485.19
2023-05-22T20:42:18.756Z,100484.09
2023-05-22T20:44:46.191Z,100486.44
2023-05-22T20:47:12.793Z,100488.41
2023-05-22T20:49:40.370Z,100486.56
2023-05-22T20:52:07.349Z,100488.06
2023-05-22T20:54:34.713Z,100477.97
2023-05-22T20:57:02.318Z,100474.59
2023-05-22T20:59:30.100Z,100478.53
2023-05-22T21:02:00.569Z,100478.06
2023-05-22T21:04:27.499Z,100475.66
2023-05-22T21:06:54.391Z,100475.94
2023-05-22T21:09:21.189Z,100477.19
2023-05-22T21:11:47.811Z,100477.22
2023-05-22T21:14:15.344Z,100485.47
2023-05-22T21:16:42.329Z,100480.28
2023-05-22T21:19:08.962Z,100473.69
2023-05-22T21:21:41.380Z,100475.78
2023-05-22T21:24:11.871Z,100472.38
2023-05-22T21:26:39.384Z,100474.38
2023-05-22T21:29:06.220Z,100478.91
2023-05-22T21:31:35.371Z,100488.19
2023-05-22T21:34:02.674Z,100484.22
2023-05-22T21:36:29.699Z,100479.25
2023-05-22T21:38:57.954Z,100481.00
2023-05-22T21:41:24.569Z,100477.03
2023-05-22T21:43:51.133Z,100473.22
2023-05-22T21:46:17.960Z,100466.75
2023-05-22T21:48:45.007Z,100464.38
2023-05-22T21:51:12.379Z,100469.44
2023-05-22T21:53:38.945Z,100470.59
2023-05-22T21:56:05.665Z,100471.44
2023-05-22T21:58:32.694Z,100461.19
2023-05-22T22:00:59.456Z,100456.50
2023-05-22T22:03:26.911Z,100462.50
2023-05-22T22:05:53.557Z,100465.94
2023-05-22T22:08:21.667Z,100462.00
2023-05-22T22:10:49.201Z,100465.75
2023-05-22T22:13:15.762Z,100465.13
2023-05-22T22:15:42.400Z,100461.81
2023-05-22T22:18:09.933Z,100465.13
2023-05-22T22:20:44.078Z,100464.81
2023-05-22T22:23:12.590Z,100455.00
2023-05-22T22:25:39.435Z,100456.16
2023-05-22T22:28:07.297Z,100448.84
2023-05-22T22:30:35.268Z,100438.59
2023-05-22T22:33:02.353Z,100452.19
2023-05-22T22:35:29.724Z,100442.53
2023-05-22T22:37:56.833Z,100445.38
2023-05-22T22:40:25.986Z,100447.19
2023-05-22T22:42:53.846Z,100447.03
2023-05-22T22:45:20.628Z,100446.31
2023-05-22T22:47:47.351Z,100440.56
2023-05-22T22:50:14.066Z,100444.91
2023-05-22T22:52:45.209Z,100442.22
2023-05-22T22:55:12.163Z,100445.63
2023-05-22T22:57:39.086Z,100449.03
2023-05-22T23:00:07.065Z,100446.06
2023-05-22T23:02:33.730Z,100449.84
2023-05-22T23:05:00.420Z,100451.16
2023-05-22T23:07:28.184Z,100452.66
2023-05-22T23:09:54.775Z,100461.94
2023-05-22T23:12:21.922Z,100458.63
2023-05-22T23:14:50.913Z,100457.47
2023-05-22T23:17:17.953Z,100450.84
2023-05-22T23:19:45.032Z,100444.38
2023-05-22T23:22:11.746Z,100449.47
2023-05-22T23:24:38.336Z,100450.31
2023-05-22T23:27:05.466Z,100447.13
2023-05-22T23:29:32.168Z,100455.53
2023-05-22T23:31:59.574Z,100448.38
2023-05-22T23:34:26.231Z,100445.41
2023-05-22T23:36:53.160Z,100439.13
2023-05-22T23:39:20.006Z,100436.50
2023-05-22T23:41:46.549Z,100429.16
2023-05-22T23:44:13.137Z,100430.13
2023-05-22T23:46:39.785Z,100433.53
2023-05-22T23:49:07.537Z,100439.03
2023-05-22T23:51:34.544Z,100428.94
2023-05-22T23:54:01.338Z,100420.47
2023-05-22T23:56:28.013Z,100424.41
2023-05-22T23:58:54.870Z,100424.66
